Havana, Cuba
Current Conditions -  °F | °C
As of 2:55 PM on Thursday 30 Oct 2014 (Local Time) from MUHA Reporting Station
Broken Clouds Broken Clouds  
Wind Chill: 30°   Ceiling: 2500
Heat Index: 30°   Visibility: 6mi
Dew Point: 17°   Wind: 8mph
Humidity: 45%   Direction: 20°NNE
Pressure: 29.91"   Gusts: NA
Location:  23.12°N, 82.39°W
Report Text: MUHA 301855Z 02007KT 310V050 9999 BKN025 30/17 Q1013
Loading
Personal Weather Stations






























Interactive Weather Map New forecast layout! Learn more

10-Day Weather Forecast

Advertisements
Track Severe Weather on mobile